Aviation Digital Data Service (ADDS)

Output produced by METARs form (1217 UTC 19 January 2019)
found at http://www.aviationweather.gov/metar/data/
 
Forecast for: KMAF (MIDLAND , TX, US)
Text: KMAF 191120Z 1912/2012 34015KT P6SM SKC
Forecast period: 1200 UTC 19 January 2019 to 0000 UTC 20 January 2019
Forecast type: FROM: standard forecast or significant change
Winds: from the NNW (340 degrees) at 17 MPH (15 knots; 7.7 m/s)
Visibility: 6 or more miles 10+ km)
Clouds: clear skies
Weather: no significant weather forecast for this period
Text: FM200000 19006KT P6SM FEW250
Forecast period: 0000 to 1200 UTC 20 January 2019
Forecast type: FROM: standard forecast or significant change
Winds: from the S (190 degrees) at 7 MPH (6 knots; 3.1 m/s)
Visibility: 6 or more miles 10+ km)
Ceiling: at least 12,000 feet AGL
Clouds: few clouds at 25000 feet AGL
Weather: no significant weather forecast for this period